sensor_id;sensor_type;location;lat;lon;timestamp;P1;durP1;ratioP1;P2;durP2;ratioP2
50367;SDS011;36281;34.132;-118.018;2023-10-19T00:01:34;20.13;;;13.52;;
50367;SDS011;36281;34.132;-118.018;2023-10-19T00:04:08;15.37;;;11.57;;
50367;SDS011;36281;34.132;-118.018;2023-10-19T00:06:39;21.33;;;13.38;;
50367;SDS011;36281;34.132;-118.018;2023-10-19T00:09:09;26.23;;;13.63;;
50367;SDS011;36281;34.132;-118.018;2023-10-19T00:11:43;18.50;;;12.50;;
50367;SDS011;36281;34.132;-118.018;2023-10-19T00:14:18;17.00;;;12.80;;
50367;SDS011;36281;34.132;-118.018;2023-10-19T00:16:48;16.42;;;12.02;;
50367;SDS011;36281;34.132;-118.018;2023-10-19T00:19:25;14.60;;;12.00;;
50367;SDS011;36281;34.132;-118.018;2023-10-19T00:21:56;19.67;;;12.38;;
50367;SDS011;36281;34.132;-118.018;2023-10-19T00:24:45;19.40;;;12.80;;
50367;SDS011;36281;34.132;-118.018;2023-10-19T00:27:15;20.98;;;13.57;;
50367;SDS011;36281;34.132;-118.018;2023-10-19T00:29:47;18.20;;;13.05;;
50367;SDS011;36281;34.132;-118.018;2023-10-19T00:32:24;19.42;;;12.80;;
50367;SDS011;36281;34.132;-118.018;2023-10-19T00:34:58;17.77;;;12.77;;
50367;SDS011;36281;34.132;-118.018;2023-10-19T00:37:40;22.15;;;12.63;;
50367;SDS011;36281;34.132;-118.018;2023-10-19T00:40:14;17.50;;;11.80;;
50367;SDS011;36281;34.132;-118.018;2023-10-19T00:42:56;18.23;;;11.55;;
50367;SDS011;36281;34.132;-118.018;2023-10-19T00:45:28;19.23;;;13.15;;
50367;SDS011;36281;34.132;-118.018;2023-10-19T00:48:01;20.70;;;12.10;;
50367;SDS011;36281;34.132;-118.018;2023-10-19T00:50:35;15.98;;;11.90;;
50367;SDS011;36281;34.132;-118.018;2023-10-19T00:53:06;15.32;;;11.38;;
50367;SDS011;36281;34.132;-118.018;2023-10-19T00:55:37;15.57;;;11.68;;
50367;SDS011;36281;34.132;-118.018;2023-10-19T00:58:10;17.80;;;11.32;;
50367;SDS011;36281;34.132;-118.018;2023-10-19T01:03:21;13.43;;;10.57;;
50367;SDS011;36281;34.132;-118.018;2023-10-19T01:05:53;16.73;;;11.68;;
50367;SDS011;36281;34.132;-118.018;2023-10-19T01:08:27;18.20;;;11.52;;
50367;SDS011;36281;34.132;-118.018;2023-10-19T01:11:04;15.70;;;11.40;;
50367;SDS011;36281;34.132;-118.018;2023-10-19T01:13:38;15.98;;;10.50;;
50367;SDS011;36281;34.132;-118.018;2023-10-19T01:16:19;18.83;;;11.00;;
50367;SDS011;36281;34.132;-118.018;2023-10-19T01:18:49;17.75;;;10.77;;
50367;SDS011;36281;34.132;-118.018;2023-10-19T01:21:24;15.60;;;11.48;;
50367;SDS011;36281;34.132;-118.018;2023-10-19T01:24:07;14.30;;;10.55;;
50367;SDS011;36281;34.132;-118.018;2023-10-19T01:26:43;14.45;;;10.52;;
50367;SDS011;36281;34.132;-118.018;2023-10-19T01:29:15;18.27;;;11.23;;
50367;SDS011;36281;34.132;-118.018;2023-10-19T01:31:46;14.38;;;10.93;;
50367;SDS011;36281;34.132;-118.018;2023-10-19T01:34:25;13.35;;;10.55;;
50367;SDS011;36281;34.132;-118.018;2023-10-19T01:36:55;17.45;;;10.70;;
50367;SDS011;36281;34.132;-118.018;2023-10-19T01:39:28;16.27;;;12.05;;
50367;SDS011;36281;34.132;-118.018;2023-10-19T01:41:58;14.65;;;10.63;;
50367;SDS011;36281;34.132;-118.018;2023-10-19T01:44:27;13.13;;;10.43;;
50367;SDS011;36281;34.132;-118.018;2023-10-19T01:46:57;15.15;;;9.80;;
50367;SDS011;36281;34.132;-118.018;2023-10-19T01:49:28;16.73;;;10.20;;
50367;SDS011;36281;34.132;-118.018;2023-10-19T01:52:00;12.65;;;9.63;;
50367;SDS011;36281;34.132;-118.018;2023-10-19T01:54:31;14.13;;;9.95;;
50367;SDS011;36281;34.132;-118.018;2023-10-19T01:57:03;14.80;;;10.02;;
50367;SDS011;36281;34.132;-118.018;2023-10-19T01:59:33;16.38;;;10.52;;
50367;SDS011;36281;34.132;-118.018;2023-10-19T02:02:08;13.50;;;11.03;;
50367;SDS011;36281;34.132;-118.018;2023-10-19T02:04:39;14.20;;;10.60;;
50367;SDS011;36281;34.132;-118.018;2023-10-19T02:07:09;15.02;;;10.20;;
50367;SDS011;36281;34.132;-118.018;2023-10-19T02:09:47;14.75;;;10.18;;
50367;SDS011;36281;34.132;-118.018;2023-10-19T02:12:17;15.65;;;10.80;;
50367;SDS011;36281;34.132;-118.018;2023-10-19T02:14:48;14.85;;;10.02;;
50367;SDS011;36281;34.132;-118.018;2023-10-19T02:17:20;19.63;;;10.45;;
50367;SDS011;36281;34.132;-118.018;2023-10-19T02:19:52;17.77;;;11.05;;
50367;SDS011;36281;34.132;-118.018;2023-10-19T02:22:22;15.80;;;10.80;;
50367;SDS011;36281;34.132;-118.018;2023-10-19T02:24:54;15.60;;;11.40;;
50367;SDS011;36281;34.132;-118.018;2023-10-19T02:27:25;16.23;;;10.27;;
50367;SDS011;36281;34.132;-118.018;2023-10-19T02:29:59;16.65;;;10.43;;
50367;SDS011;36281;34.132;-118.018;2023-10-19T02:32:29;17.02;;;10.43;;
50367;SDS011;36281;34.132;-118.018;2023-10-19T02:35:04;15.70;;;10.13;;
50367;SDS011;36281;34.132;-118.018;2023-10-19T02:37:33;17.48;;;10.48;;
50367;SDS011;36281;34.132;-118.018;2023-10-19T02:40:10;13.80;;;10.20;;
50367;SDS011;36281;34.132;-118.018;2023-10-19T02:42:47;14.77;;;10.45;;
50367;SDS011;36281;34.132;-118.018;2023-10-19T02:45:20;15.35;;;9.60;;
50367;SDS011;36281;34.132;-118.018;2023-10-19T02:47:51;14.30;;;9.63;;
50367;SDS011;36281;34.132;-118.018;2023-10-19T02:50:21;21.10;;;11.13;;
50367;SDS011;36281;34.132;-118.018;2023-10-19T02:52:51;18.00;;;10.23;;
50367;SDS011;36281;34.132;-118.018;2023-10-19T02:55:26;14.98;;;10.73;;
50367;SDS011;36281;34.132;-118.018;2023-10-19T02:57:59;18.10;;;9.95;;
50367;SDS011;36281;34.132;-118.018;2023-10-19T03:00:29;17.42;;;9.90;;
50367;SDS011;36281;34.132;-118.018;2023-10-19T03:03:03;16.70;;;10.15;;
50367;SDS011;36281;34.132;-118.018;2023-10-19T03:05:34;15.55;;;9.27;;
50367;SDS011;36281;34.132;-118.018;2023-10-19T03:08:08;15.52;;;9.82;;
50367;SDS011;36281;34.132;-118.018;2023-10-19T03:10:40;19.52;;;10.25;;
50367;SDS011;36281;34.132;-118.018;2023-10-19T03:13:13;14.25;;;9.55;;
50367;SDS011;36281;34.132;-118.018;2023-10-19T03:15:45;17.10;;;10.18;;
50367;SDS011;36281;34.132;-118.018;2023-10-19T03:18:16;15.10;;;9.82;;
50367;SDS011;36281;34.132;-118.018;2023-10-19T03:20:46;16.30;;;9.63;;
50367;SDS011;36281;34.132;-118.018;2023-10-19T03:23:20;13.15;;;9.05;;
50367;SDS011;36281;34.132;-118.018;2023-10-19T03:25:56;19.23;;;9.27;;
50367;SDS011;36281;34.132;-118.018;2023-10-19T03:28:44;11.32;;;9.27;;
50367;SDS011;36281;34.132;-118.018;2023-10-19T03:31:13;21.13;;;10.85;;
50367;SDS011;36281;34.132;-118.018;2023-10-19T03:33:47;17.27;;;10.60;;
50367;SDS011;36281;34.132;-118.018;2023-10-19T03:36:23;15.75;;;9.63;;
50367;SDS011;36281;34.132;-118.018;2023-10-19T03:38:53;16.30;;;10.15;;
50367;SDS011;36281;34.132;-118.018;2023-10-19T03:41:26;15.35;;;10.02;;
50367;SDS011;36281;34.132;-118.018;2023-10-19T03:43:57;17.35;;;10.10;;
50367;SDS011;36281;34.132;-118.018;2023-10-19T03:46:27;17.58;;;10.00;;
50367;SDS011;36281;34.132;-118.018;2023-10-19T03:48:58;15.35;;;9.30;;
50367;SDS011;36281;34.132;-118.018;2023-10-19T03:51:38;15.18;;;9.35;;
50367;SDS011;36281;34.132;-118.018;2023-10-19T03:54:11;14.90;;;9.63;;
50367;SDS011;36281;34.132;-118.018;2023-10-19T03:56:56;16.10;;;9.52;;
50367;SDS011;36281;34.132;-118.018;2023-10-19T03:59:29;15.40;;;9.73;;
50367;SDS011;36281;34.132;-118.018;2023-10-19T04:02:02;14.02;;;9.23;;
50367;SDS011;36281;34.132;-118.018;2023-10-19T04:04:39;17.27;;;9.73;;
50367;SDS011;36281;34.132;-118.018;2023-10-19T04:07:12;17.58;;;10.68;;
50367;SDS011;36281;34.132;-118.018;2023-10-19T04:09:53;11.75;;;9.63;;
50367;SDS011;36281;34.132;-118.018;2023-10-19T04:12:49;14.23;;;10.05;;
50367;SDS011;36281;34.132;-118.018;2023-10-19T04:15:19;15.98;;;10.07;;
50367;SDS011;36281;34.132;-118.018;2023-10-19T04:17:48;17.10;;;10.38;;
50367;SDS011;36281;34.132;-118.018;2023-10-19T04:20:18;16.75;;;9.90;;
50367;SDS011;36281;34.132;-118.018;2023-10-19T04:22:47;17.42;;;10.70;;
50367;SDS011;36281;34.132;-118.018;2023-10-19T04:25:18;16.55;;;10.40;;
50367;SDS011;36281;34.132;-118.018;2023-10-19T04:27:52;18.63;;;11.15;;
50367;SDS011;36281;34.132;-118.018;2023-10-19T04:30:22;17.52;;;11.73;;
50367;SDS011;36281;34.132;-118.018;2023-10-19T04:32:55;15.05;;;10.93;;
50367;SDS011;36281;34.132;-118.018;2023-10-19T04:35:27;19.13;;;11.52;;
50367;SDS011;36281;34.132;-118.018;2023-10-19T04:38:03;17.38;;;10.88;;
50367;SDS011;36281;34.132;-118.018;2023-10-19T04:40:36;18.70;;;11.73;;
50367;SDS011;36281;34.132;-118.018;2023-10-19T04:43:08;16.58;;;10.82;;
50367;SDS011;36281;34.132;-118.018;2023-10-19T04:45:39;16.85;;;11.52;;
50367;SDS011;36281;34.132;-118.018;2023-10-19T04:48:08;17.55;;;11.05;;
50367;SDS011;36281;34.132;-118.018;2023-10-19T04:50:40;17.92;;;11.70;;
50367;SDS011;36281;34.132;-118.018;2023-10-19T04:53:09;18.23;;;12.45;;
50367;SDS011;36281;34.132;-118.018;2023-10-19T04:55:42;17.67;;;11.02;;
50367;SDS011;36281;34.132;-118.018;2023-10-19T04:58:14;20.75;;;11.82;;
50367;SDS011;36281;34.132;-118.018;2023-10-19T05:00:47;16.67;;;11.20;;
50367;SDS011;36281;34.132;-118.018;2023-10-19T05:03:18;19.27;;;11.27;;
50367;SDS011;36281;34.132;-118.018;2023-10-19T05:05:48;18.35;;;11.88;;
50367;SDS011;36281;34.132;-118.018;2023-10-19T05:08:17;17.60;;;12.35;;
50367;SDS011;36281;34.132;-118.018;2023-10-19T05:10:48;17.33;;;11.75;;
50367;SDS011;36281;34.132;-118.018;2023-10-19T05:13:23;16.70;;;11.18;;
50367;SDS011;36281;34.132;-118.018;2023-10-19T05:15:54;19.80;;;11.82;;
50367;SDS011;36281;34.132;-118.018;2023-10-19T05:18:24;18.45;;;11.40;;
50367;SDS011;36281;34.132;-118.018;2023-10-19T05:20:54;17.20;;;11.02;;
50367;SDS011;36281;34.132;-118.018;2023-10-19T05:23:24;17.55;;;12.40;;
50367;SDS011;36281;34.132;-118.018;2023-10-19T05:25:59;18.40;;;12.68;;
50367;SDS011;36281;34.132;-118.018;2023-10-19T05:28:36;20.52;;;12.73;;
50367;SDS011;36281;34.132;-118.018;2023-10-19T05:31:05;19.88;;;12.82;;
50367;SDS011;36281;34.132;-118.018;2023-10-19T05:33:35;17.15;;;12.43;;
50367;SDS011;36281;34.132;-118.018;2023-10-19T05:36:04;20.38;;;12.57;;
50367;SDS011;36281;34.132;-118.018;2023-10-19T05:38:34;19.10;;;11.93;;
50367;SDS011;36281;34.132;-118.018;2023-10-19T05:41:05;17.98;;;12.60;;
50367;SDS011;36281;34.132;-118.018;2023-10-19T05:43:37;18.05;;;12.63;;
50367;SDS011;36281;34.132;-118.018;2023-10-19T05:46:07;17.60;;;12.35;;
50367;SDS011;36281;34.132;-118.018;2023-10-19T05:48:36;17.35;;;12.27;;
50367;SDS011;36281;34.132;-118.018;2023-10-19T05:51:05;17.45;;;12.18;;
50367;SDS011;36281;34.132;-118.018;2023-10-19T05:53:35;17.20;;;12.23;;
50367;SDS011;36281;34.132;-118.018;2023-10-19T05:56:05;17.27;;;11.60;;
50367;SDS011;36281;34.132;-118.018;2023-10-19T05:58:35;20.15;;;12.75;;
50367;SDS011;36281;34.132;-118.018;2023-10-19T06:01:06;16.90;;;12.40;;
50367;SDS011;36281;34.132;-118.018;2023-10-19T06:03:38;23.02;;;12.68;;
50367;SDS011;36281;34.132;-118.018;2023-10-19T06:06:08;18.83;;;12.65;;
50367;SDS011;36281;34.132;-118.018;2023-10-19T06:08:37;21.75;;;13.25;;
50367;SDS011;36281;34.132;-118.018;2023-10-19T06:11:08;19.40;;;13.07;;
50367;SDS011;36281;34.132;-118.018;2023-10-19T06:13:40;21.42;;;13.27;;
50367;SDS011;36281;34.132;-118.018;2023-10-19T06:16:09;20.95;;;12.90;;
50367;SDS011;36281;34.132;-118.018;2023-10-19T06:18:40;19.63;;;13.27;;
50367;SDS011;36281;34.132;-118.018;2023-10-19T06:21:12;19.42;;;13.25;;
50367;SDS011;36281;34.132;-118.018;2023-10-19T06:23:47;16.52;;;12.45;;
50367;SDS011;36281;34.132;-118.018;2023-10-19T06:26:18;18.63;;;13.18;;
50367;SDS011;36281;34.132;-118.018;2023-10-19T06:28:53;20.13;;;13.02;;
50367;SDS011;36281;34.132;-118.018;2023-10-19T06:31:28;15.75;;;12.77;;
50367;SDS011;36281;34.132;-118.018;2023-10-19T06:33:59;24.15;;;13.85;;
50367;SDS011;36281;34.132;-118.018;2023-10-19T06:36:32;19.40;;;14.15;;
50367;SDS011;36281;34.132;-118.018;2023-10-19T06:39:02;18.05;;;13.50;;
50367;SDS011;36281;34.132;-118.018;2023-10-19T06:41:34;17.85;;;13.35;;
50367;SDS011;36281;34.132;-118.018;2023-10-19T06:44:05;20.55;;;13.93;;
50367;SDS011;36281;34.132;-118.018;2023-10-19T06:46:35;19.13;;;13.40;;
50367;SDS011;36281;34.132;-118.018;2023-10-19T06:49:05;21.73;;;14.23;;
50367;SDS011;36281;34.132;-118.018;2023-10-19T06:51:37;21.23;;;13.65;;
50367;SDS011;36281;34.132;-118.018;2023-10-19T06:54:07;19.90;;;14.38;;
50367;SDS011;36281;34.132;-118.018;2023-10-19T06:56:36;17.88;;;13.30;;
50367;SDS011;36281;34.132;-118.018;2023-10-19T06:59:09;22.30;;;12.68;;
50367;SDS011;36281;34.132;-118.018;2023-10-19T07:01:40;20.17;;;12.95;;
50367;SDS011;36281;34.132;-118.018;2023-10-19T07:04:09;19.10;;;14.13;;
50367;SDS011;36281;34.132;-118.018;2023-10-19T07:06:40;19.92;;;14.00;;
50367;SDS011;36281;34.132;-118.018;2023-10-19T07:09:10;19.17;;;12.75;;
50367;SDS011;36281;34.132;-118.018;2023-10-19T07:11:39;17.88;;;13.65;;
50367;SDS011;36281;34.132;-118.018;2023-10-19T07:14:14;18.35;;;13.75;;
50367;SDS011;36281;34.132;-118.018;2023-10-19T07:16:44;20.35;;;13.85;;
50367;SDS011;36281;34.132;-118.018;2023-10-19T07:19:14;22.33;;;15.05;;
50367;SDS011;36281;34.132;-118.018;2023-10-19T07:21:44;24.38;;;15.68;;
50367;SDS011;36281;34.132;-118.018;2023-10-19T07:24:18;23.95;;;15.73;;
50367;SDS011;36281;34.132;-118.018;2023-10-19T07:26:47;22.20;;;14.57;;
50367;SDS011;36281;34.132;-118.018;2023-10-19T07:29:34;20.13;;;14.73;;
50367;SDS011;36281;34.132;-118.018;2023-10-19T07:32:08;22.77;;;15.25;;
50367;SDS011;36281;34.132;-118.018;2023-10-19T07:34:41;21.08;;;14.60;;
50367;SDS011;36281;34.132;-118.018;2023-10-19T07:37:12;23.48;;;15.43;;
50367;SDS011;36281;34.132;-118.018;2023-10-19T07:39:44;19.05;;;15.18;;
50367;SDS011;36281;34.132;-118.018;2023-10-19T07:42:14;22.77;;;15.20;;
50367;SDS011;36281;34.132;-118.018;2023-10-19T07:44:48;21.52;;;15.45;;
50367;SDS011;36281;34.132;-118.018;2023-10-19T07:47:23;21.20;;;14.68;;
50367;SDS011;36281;34.132;-118.018;2023-10-19T07:49:53;20.98;;;15.30;;
50367;SDS011;36281;34.132;-118.018;2023-10-19T07:52:25;23.00;;;15.13;;
50367;SDS011;36281;34.132;-118.018;2023-10-19T07:54:55;19.27;;;14.05;;
50367;SDS011;36281;34.132;-118.018;2023-10-19T07:57:24;25.02;;;15.82;;
50367;SDS011;36281;34.132;-118.018;2023-10-19T07:59:56;19.15;;;13.88;;
50367;SDS011;36281;34.132;-118.018;2023-10-19T08:02:30;18.38;;;14.65;;
50367;SDS011;36281;34.132;-118.018;2023-10-19T08:05:06;20.45;;;14.18;;
50367;SDS011;36281;34.132;-118.018;2023-10-19T08:07:35;21.38;;;14.80;;
50367;SDS011;36281;34.132;-118.018;2023-10-19T08:10:09;20.63;;;14.35;;
50367;SDS011;36281;34.132;-118.018;2023-10-19T08:12:42;22.17;;;15.25;;
50367;SDS011;36281;34.132;-118.018;2023-10-19T08:15:17;21.10;;;14.38;;
50367;SDS011;36281;34.132;-118.018;2023-10-19T08:17:48;17.77;;;12.88;;
50367;SDS011;36281;34.132;-118.018;2023-10-19T08:20:19;19.63;;;13.82;;
50367;SDS011;36281;34.132;-118.018;2023-10-19T08:22:53;19.25;;;14.32;;
50367;SDS011;36281;34.132;-118.018;2023-10-19T08:25:25;19.65;;;13.20;;
50367;SDS011;36281;34.132;-118.018;2023-10-19T08:28:14;19.17;;;13.52;;
50367;SDS011;36281;34.132;-118.018;2023-10-19T08:30:45;18.58;;;13.43;;
50367;SDS011;36281;34.132;-118.018;2023-10-19T08:33:25;22.63;;;14.13;;
50367;SDS011;36281;34.132;-118.018;2023-10-19T08:35:55;22.23;;;13.35;;
50367;SDS011;36281;34.132;-118.018;2023-10-19T08:38:25;17.58;;;13.18;;
50367;SDS011;36281;34.132;-118.018;2023-10-19T08:40:55;22.42;;;14.20;;
50367;SDS011;36281;34.132;-118.018;2023-10-19T08:43:27;16.65;;;13.27;;
50367;SDS011;36281;34.132;-118.018;2023-10-19T08:45:58;16.63;;;12.70;;
50367;SDS011;36281;34.132;-118.018;2023-10-19T08:48:29;21.98;;;12.82;;
50367;SDS011;36281;34.132;-118.018;2023-10-19T08:51:08;19.55;;;13.70;;
50367;SDS011;36281;34.132;-118.018;2023-10-19T08:53:40;17.45;;;12.52;;
50367;SDS011;36281;34.132;-118.018;2023-10-19T08:56:10;17.25;;;12.90;;
50367;SDS011;36281;34.132;-118.018;2023-10-19T08:58:40;17.35;;;12.68;;
50367;SDS011;36281;34.132;-118.018;2023-10-19T09:01:11;19.30;;;13.13;;
50367;SDS011;36281;34.132;-118.018;2023-10-19T09:03:41;24.00;;;12.77;;
50367;SDS011;36281;34.132;-118.018;2023-10-19T09:06:11;19.35;;;13.10;;
50367;SDS011;36281;34.132;-118.018;2023-10-19T09:08:42;20.33;;;13.63;;
50367;SDS011;36281;34.132;-118.018;2023-10-19T09:11:16;19.13;;;12.20;;
50367;SDS011;36281;34.132;-118.018;2023-10-19T09:13:49;16.67;;;12.23;;
50367;SDS011;36281;34.132;-118.018;2023-10-19T09:16:22;17.02;;;11.93;;
50367;SDS011;36281;34.132;-118.018;2023-10-19T09:18:52;16.20;;;11.88;;
50367;SDS011;36281;34.132;-118.018;2023-10-19T09:21:22;17.45;;;11.52;;
50367;SDS011;36281;34.132;-118.018;2023-10-19T09:23:55;17.00;;;12.05;;
50367;SDS011;36281;34.132;-118.018;2023-10-19T09:26:26;17.10;;;10.93;;
50367;SDS011;36281;34.132;-118.018;2023-10-19T09:28:56;15.93;;;11.15;;
50367;SDS011;36281;34.132;-118.018;2023-10-19T09:31:27;15.32;;;11.23;;
50367;SDS011;36281;34.132;-118.018;2023-10-19T09:33:57;13.45;;;10.57;;
50367;SDS011;36281;34.132;-118.018;2023-10-19T09:36:27;14.50;;;10.75;;
50367;SDS011;36281;34.132;-118.018;2023-10-19T09:39:00;22.52;;;11.95;;
50367;SDS011;36281;34.132;-118.018;2023-10-19T09:41:31;14.57;;;11.52;;
50367;SDS011;36281;34.132;-118.018;2023-10-19T09:44:04;14.93;;;11.45;;
50367;SDS011;36281;34.132;-118.018;2023-10-19T09:46:42;15.90;;;11.77;;
50367;SDS011;36281;34.132;-118.018;2023-10-19T09:49:15;16.35;;;11.02;;
50367;SDS011;36281;34.132;-118.018;2023-10-19T09:51:46;14.48;;;11.65;;
50367;SDS011;36281;34.132;-118.018;2023-10-19T09:54:37;16.85;;;11.88;;
50367;SDS011;36281;34.132;-118.018;2023-10-19T09:57:18;14.48;;;11.75;;
50367;SDS011;36281;34.132;-118.018;2023-10-19T09:59:54;18.38;;;12.23;;
50367;SDS011;36281;34.132;-118.018;2023-10-19T10:02:29;16.77;;;12.25;;
50367;SDS011;36281;34.132;-118.018;2023-10-19T10:05:00;15.52;;;12.63;;
50367;SDS011;36281;34.132;-118.018;2023-10-19T10:07:32;17.00;;;12.43;;
50367;SDS011;36281;34.132;-118.018;2023-10-19T10:10:06;18.00;;;12.52;;
50367;SDS011;36281;34.132;-118.018;2023-10-19T10:12:38;14.82;;;12.20;;
50367;SDS011;36281;34.132;-118.018;2023-10-19T10:15:08;17.60;;;11.57;;
50367;SDS011;36281;34.132;-118.018;2023-10-19T10:17:41;14.90;;;11.98;;
50367;SDS011;36281;34.132;-118.018;2023-10-19T10:23:18;14.30;;;10.85;;
50367;SDS011;36281;34.132;-118.018;2023-10-19T10:25:57;14.25;;;11.68;;
50367;SDS011;36281;34.132;-118.018;2023-10-19T10:28:27;15.32;;;11.13;;
50367;SDS011;36281;34.132;-118.018;2023-10-19T10:31:10;15.98;;;11.40;;
50367;SDS011;36281;34.132;-118.018;2023-10-19T10:33:48;17.10;;;11.02;;
50367;SDS011;36281;34.132;-118.018;2023-10-19T10:36:19;15.23;;;11.00;;
50367;SDS011;36281;34.132;-118.018;2023-10-19T10:38:50;18.42;;;11.80;;
50367;SDS011;36281;34.132;-118.018;2023-10-19T10:41:20;15.15;;;10.85;;
50367;SDS011;36281;34.132;-118.018;2023-10-19T10:43:54;14.70;;;10.75;;
50367;SDS011;36281;34.132;-118.018;2023-10-19T10:46:25;16.80;;;10.20;;
50367;SDS011;36281;34.132;-118.018;2023-10-19T10:49:07;15.70;;;10.32;;
50367;SDS011;36281;34.132;-118.018;2023-10-19T10:51:39;12.75;;;9.93;;
50367;SDS011;36281;34.132;-118.018;2023-10-19T10:54:10;14.07;;;9.93;;
50367;SDS011;36281;34.132;-118.018;2023-10-19T10:56:45;12.55;;;9.63;;
50367;SDS011;36281;34.132;-118.018;2023-10-19T10:59:14;12.88;;;9.32;;
50367;SDS011;36281;34.132;-118.018;2023-10-19T11:01:44;15.13;;;8.93;;
50367;SDS011;36281;34.132;-118.018;2023-10-19T11:04:15;13.00;;;9.57;;
50367;SDS011;36281;34.132;-118.018;2023-10-19T11:06:48;13.73;;;9.68;;
50367;SDS011;36281;34.132;-118.018;2023-10-19T11:09:19;12.68;;;8.98;;
50367;SDS011;36281;34.132;-118.018;2023-10-19T11:11:49;13.93;;;9.43;;
50367;SDS011;36281;34.132;-118.018;2023-10-19T11:14:20;9.80;;;8.32;;
50367;SDS011;36281;34.132;-118.018;2023-10-19T11:16:53;13.68;;;8.32;;
50367;SDS011;36281;34.132;-118.018;2023-10-19T11:22:10;12.65;;;8.98;;
50367;SDS011;36281;34.132;-118.018;2023-10-19T11:24:40;12.85;;;8.30;;
50367;SDS011;36281;34.132;-118.018;2023-10-19T11:27:22;13.70;;;9.60;;
50367;SDS011;36281;34.132;-118.018;2023-10-19T11:29:59;12.23;;;9.23;;
50367;SDS011;36281;34.132;-118.018;2023-10-19T11:32:36;11.07;;;9.27;;
50367;SDS011;36281;34.132;-118.018;2023-10-19T11:35:10;15.13;;;8.85;;
50367;SDS011;36281;34.132;-118.018;2023-10-19T11:37:47;11.68;;;9.23;;
50367;SDS011;36281;34.132;-118.018;2023-10-19T11:40:17;13.38;;;8.75;;
50367;SDS011;36281;34.132;-118.018;2023-10-19T11:42:48;14.23;;;9.35;;
50367;SDS011;36281;34.132;-118.018;2023-10-19T11:45:19;12.90;;;9.15;;
50367;SDS011;36281;34.132;-118.018;2023-10-19T11:47:48;13.45;;;9.15;;
50367;SDS011;36281;34.132;-118.018;2023-10-19T11:50:22;12.18;;;9.00;;
50367;SDS011;36281;34.132;-118.018;2023-10-19T11:52:53;14.57;;;9.32;;
50367;SDS011;36281;34.132;-118.018;2023-10-19T11:55:24;11.05;;;8.65;;
50367;SDS011;36281;34.132;-118.018;2023-10-19T11:57:54;12.27;;;8.85;;
50367;SDS011;36281;34.132;-118.018;2023-10-19T12:00:24;12.13;;;9.18;;
50367;SDS011;36281;34.132;-118.018;2023-10-19T12:03:02;9.48;;;8.43;;
50367;SDS011;36281;34.132;-118.018;2023-10-19T12:05:33;10.70;;;8.40;;
50367;SDS011;36281;34.132;-118.018;2023-10-19T12:08:06;13.00;;;8.88;;
50367;SDS011;36281;34.132;-118.018;2023-10-19T12:10:37;12.25;;;8.40;;
50367;SDS011;36281;34.132;-118.018;2023-10-19T12:13:07;13.30;;;8.90;;
50367;SDS011;36281;34.132;-118.018;2023-10-19T12:15:38;13.85;;;8.55;;
50367;SDS011;36281;34.132;-118.018;2023-10-19T12:18:07;15.38;;;8.98;;
50367;SDS011;36281;34.132;-118.018;2023-10-19T12:20:39;13.15;;;8.68;;
50367;SDS011;36281;34.132;-118.018;2023-10-19T12:25:42;11.55;;;9.15;;
50367;SDS011;36281;34.132;-118.018;2023-10-19T12:28:23;13.13;;;8.90;;
50367;SDS011;36281;34.132;-118.018;2023-10-19T12:30:55;12.38;;;8.30;;
50367;SDS011;36281;34.132;-118.018;2023-10-19T12:33:28;12.25;;;8.55;;
50367;SDS011;36281;34.132;-118.018;2023-10-19T12:35:59;11.93;;;8.10;;
50367;SDS011;36281;34.132;-118.018;2023-10-19T12:38:28;13.65;;;8.70;;
50367;SDS011;36281;34.132;-118.018;2023-10-19T12:40:58;14.85;;;8.60;;
50367;SDS011;36281;34.132;-118.018;2023-10-19T12:43:27;13.13;;;8.30;;
50367;SDS011;36281;34.132;-118.018;2023-10-19T12:45:59;11.27;;;8.35;;
50367;SDS011;36281;34.132;-118.018;2023-10-19T12:48:30;10.75;;;8.25;;
50367;SDS011;36281;34.132;-118.018;2023-10-19T12:51:03;11.20;;;7.95;;
50367;SDS011;36281;34.132;-118.018;2023-10-19T12:53:37;11.23;;;8.50;;
50367;SDS011;36281;34.132;-118.018;2023-10-19T12:56:11;14.88;;;8.15;;
50367;SDS011;36281;34.132;-118.018;2023-10-19T12:58:40;9.50;;;7.82;;
50367;SDS011;36281;34.132;-118.018;2023-10-19T13:01:11;9.93;;;7.85;;
50367;SDS011;36281;34.132;-118.018;2023-10-19T13:03:45;11.40;;;7.72;;
50367;SDS011;36281;34.132;-118.018;2023-10-19T13:06:18;10.50;;;7.47;;
50367;SDS011;36281;34.132;-118.018;2023-10-19T13:08:48;12.13;;;7.60;;
50367;SDS011;36281;34.132;-118.018;2023-10-19T13:11:18;9.95;;;7.03;;
50367;SDS011;36281;34.132;-118.018;2023-10-19T13:13:48;9.80;;;7.15;;
50367;SDS011;36281;34.132;-118.018;2023-10-19T13:16:19;13.43;;;7.38;;
50367;SDS011;36281;34.132;-118.018;2023-10-19T13:18:48;11.00;;;7.97;;
50367;SDS011;36281;34.132;-118.018;2023-10-19T13:21:19;9.68;;;7.57;;
50367;SDS011;36281;34.132;-118.018;2023-10-19T13:23:58;10.60;;;7.35;;
50367;SDS011;36281;34.132;-118.018;2023-10-19T13:26:29;11.57;;;8.20;;
50367;SDS011;36281;34.132;-118.018;2023-10-19T13:29:01;14.55;;;8.15;;
50367;SDS011;36281;34.132;-118.018;2023-10-19T13:31:31;11.85;;;7.55;;
50367;SDS011;36281;34.132;-118.018;2023-10-19T13:34:04;11.75;;;7.38;;
50367;SDS011;36281;34.132;-118.018;2023-10-19T13:36:40;11.32;;;7.25;;
50367;SDS011;36281;34.132;-118.018;2023-10-19T13:39:09;12.95;;;7.78;;
50367;SDS011;36281;34.132;-118.018;2023-10-19T13:41:44;9.80;;;7.40;;
50367;SDS011;36281;34.132;-118.018;2023-10-19T13:44:14;13.77;;;7.43;;
50367;SDS011;36281;34.132;-118.018;2023-10-19T13:46:47;10.23;;;7.03;;
50367;SDS011;36281;34.132;-118.018;2023-10-19T13:49:21;11.07;;;7.03;;
50367;SDS011;36281;34.132;-118.018;2023-10-19T13:51:52;8.30;;;6.40;;
50367;SDS011;36281;34.132;-118.018;2023-10-19T13:54:25;9.70;;;6.45;;
50367;SDS011;36281;34.132;-118.018;2023-10-19T13:56:56;11.35;;;7.30;;
50367;SDS011;36281;34.132;-118.018;2023-10-19T13:59:25;9.15;;;6.15;;
50367;SDS011;36281;34.132;-118.018;2023-10-19T14:01:57;13.25;;;7.32;;
50367;SDS011;36281;34.132;-118.018;2023-10-19T14:04:27;9.02;;;7.07;;
50367;SDS011;36281;34.132;-118.018;2023-10-19T14:07:00;11.07;;;6.55;;
50367;SDS011;36281;34.132;-118.018;2023-10-19T14:09:33;11.23;;;6.60;;
50367;SDS011;36281;34.132;-118.018;2023-10-19T14:12:03;9.98;;;6.30;;
50367;SDS011;36281;34.132;-118.018;2023-10-19T14:14:34;10.25;;;6.13;;
50367;SDS011;36281;34.132;-118.018;2023-10-19T14:17:06;13.00;;;6.93;;
50367;SDS011;36281;34.132;-118.018;2023-10-19T14:19:36;12.15;;;6.82;;
50367;SDS011;36281;34.132;-118.018;2023-10-19T14:22:08;13.18;;;6.45;;
50367;SDS011;36281;34.132;-118.018;2023-10-19T14:24:38;11.95;;;7.03;;
50367;SDS011;36281;34.132;-118.018;2023-10-19T14:27:20;13.68;;;7.03;;
50367;SDS011;36281;34.132;-118.018;2023-10-19T14:29:51;11.80;;;6.40;;